sensor_id;sensor_type;location;lat;lon;timestamp;P1;durP1;ratioP1;P2;durP2;ratioP2
47529;SDS011;33272;51.922;7.730;2023-03-20T00:00:44;28.93;;;16.67;;
47529;SDS011;33272;51.922;7.730;2023-03-20T00:03:13;29.03;;;15.60;;
47529;SDS011;33272;51.922;7.730;2023-03-20T00:05:40;27.17;;;15.53;;
47529;SDS011;33272;51.922;7.730;2023-03-20T00:08:08;24.40;;;15.83;;
47529;SDS011;33272;51.922;7.730;2023-03-20T00:10:35;26.07;;;17.17;;
47529;SDS011;33272;51.922;7.730;2023-03-20T00:13:05;28.57;;;17.30;;
47529;SDS011;33272;51.922;7.730;2023-03-20T00:15:40;29.57;;;17.30;;
47529;SDS011;33272;51.922;7.730;2023-03-20T00:18:11;27.47;;;16.57;;
47529;SDS011;33272;51.922;7.730;2023-03-20T00:20:42;25.50;;;16.90;;
47529;SDS011;33272;51.922;7.730;2023-03-20T00:23:09;29.93;;;17.53;;
47529;SDS011;33272;51.922;7.730;2023-03-20T00:25:37;31.30;;;18.60;;
47529;SDS011;33272;51.922;7.730;2023-03-20T00:28:10;26.17;;;17.43;;
47529;SDS011;33272;51.922;7.730;2023-03-20T00:31:12;27.03;;;17.33;;
47529;SDS011;33272;51.922;7.730;2023-03-20T00:33:45;30.17;;;17.63;;
47529;SDS011;33272;51.922;7.730;2023-03-20T00:36:12;30.93;;;18.57;;
47529;SDS011;33272;51.922;7.730;2023-03-20T00:38:39;33.23;;;18.30;;
47529;SDS011;33272;51.922;7.730;2023-03-20T00:41:10;27.80;;;18.57;;
47529;SDS011;33272;51.922;7.730;2023-03-20T00:43:51;30.20;;;18.97;;
47529;SDS011;33272;51.922;7.730;2023-03-20T00:46:23;32.27;;;19.40;;
47529;SDS011;33272;51.922;7.730;2023-03-20T00:48:51;32.07;;;20.17;;
47529;SDS011;33272;51.922;7.730;2023-03-20T00:51:18;33.00;;;18.73;;
47529;SDS011;33272;51.922;7.730;2023-03-20T00:53:45;34.40;;;19.57;;
47529;SDS011;33272;51.922;7.730;2023-03-20T00:56:29;31.23;;;18.87;;
47529;SDS011;33272;51.922;7.730;2023-03-20T00:59:00;31.33;;;18.43;;
47529;SDS011;33272;51.922;7.730;2023-03-20T01:01:30;34.70;;;19.77;;
47529;SDS011;33272;51.922;7.730;2023-03-20T01:03:57;38.47;;;21.80;;
47529;SDS011;33272;51.922;7.730;2023-03-20T01:06:24;35.17;;;21.70;;
47529;SDS011;33272;51.922;7.730;2023-03-20T01:08:52;36.90;;;22.50;;
47529;SDS011;33272;51.922;7.730;2023-03-20T01:11:21;36.70;;;22.77;;
47529;SDS011;33272;51.922;7.730;2023-03-20T01:13:49;33.57;;;21.73;;
47529;SDS011;33272;51.922;7.730;2023-03-20T01:16:19;35.90;;;22.13;;
47529;SDS011;33272;51.922;7.730;2023-03-20T01:18:49;38.53;;;22.67;;
47529;SDS011;33272;51.922;7.730;2023-03-20T01:21:17;33.13;;;21.40;;
47529;SDS011;33272;51.922;7.730;2023-03-20T01:23:45;34.60;;;22.73;;
47529;SDS011;33272;51.922;7.730;2023-03-20T01:26:20;34.77;;;21.67;;
47529;SDS011;33272;51.922;7.730;2023-03-20T01:28:52;36.97;;;23.27;;
47529;SDS011;33272;51.922;7.730;2023-03-20T01:31:19;38.83;;;23.47;;
47529;SDS011;33272;51.922;7.730;2023-03-20T01:33:46;41.87;;;24.27;;
47529;SDS011;33272;51.922;7.730;2023-03-20T01:36:14;37.60;;;24.17;;
47529;SDS011;33272;51.922;7.730;2023-03-20T01:38:47;37.33;;;25.40;;
47529;SDS011;33272;51.922;7.730;2023-03-20T01:41:20;41.33;;;25.73;;
47529;SDS011;33272;51.922;7.730;2023-03-20T01:43:50;41.93;;;26.47;;
47529;SDS011;33272;51.922;7.730;2023-03-20T01:46:19;41.80;;;26.27;;
47529;SDS011;33272;51.922;7.730;2023-03-20T01:48:57;39.80;;;26.63;;
47529;SDS011;33272;51.922;7.730;2023-03-20T01:52:09;42.47;;;27.43;;
47529;SDS011;33272;51.922;7.730;2023-03-20T01:54:36;40.13;;;25.37;;
47529;SDS011;33272;51.922;7.730;2023-03-20T01:57:06;39.40;;;27.97;;
47529;SDS011;33272;51.922;7.730;2023-03-20T01:59:40;42.63;;;27.17;;
47529;SDS011;33272;51.922;7.730;2023-03-20T02:02:12;38.00;;;25.70;;
47529;SDS011;33272;51.922;7.730;2023-03-20T02:04:44;42.20;;;26.13;;
47529;SDS011;33272;51.922;7.730;2023-03-20T02:07:19;37.77;;;25.87;;
47529;SDS011;33272;51.922;7.730;2023-03-20T02:09:48;40.47;;;26.63;;
47529;SDS011;33272;51.922;7.730;2023-03-20T02:12:16;42.23;;;26.80;;
47529;SDS011;33272;51.922;7.730;2023-03-20T02:14:45;39.43;;;25.10;;
47529;SDS011;33272;51.922;7.730;2023-03-20T02:17:13;36.57;;;25.07;;
47529;SDS011;33272;51.922;7.730;2023-03-20T02:19:42;35.43;;;24.77;;
47529;SDS011;33272;51.922;7.730;2023-03-20T02:22:29;34.37;;;23.40;;
47529;SDS011;33272;51.922;7.730;2023-03-20T02:25:51;34.60;;;22.73;;
47529;SDS011;33272;51.922;7.730;2023-03-20T02:28:50;34.37;;;23.93;;
47529;SDS011;33272;51.922;7.730;2023-03-20T02:32:11;31.63;;;22.97;;
47529;SDS011;33272;51.922;7.730;2023-03-20T02:35:37;35.57;;;24.00;;
47529;SDS011;33272;51.922;7.730;2023-03-20T02:42:13;33.07;;;22.87;;
47529;SDS011;33272;51.922;7.730;2023-03-20T02:44:50;35.30;;;23.57;;
47529;SDS011;33272;51.922;7.730;2023-03-20T02:47:29;33.27;;;22.67;;
47529;SDS011;33272;51.922;7.730;2023-03-20T02:50:04;35.57;;;23.47;;
47529;SDS011;33272;51.922;7.730;2023-03-20T02:52:41;33.77;;;22.20;;
47529;SDS011;33272;51.922;7.730;2023-03-20T02:55:14;32.63;;;23.17;;
47529;SDS011;33272;51.922;7.730;2023-03-20T02:57:49;33.23;;;23.30;;
47529;SDS011;33272;51.922;7.730;2023-03-20T03:00:25;32.63;;;22.20;;
47529;SDS011;33272;51.922;7.730;2023-03-20T03:02:59;32.77;;;22.23;;
47529;SDS011;33272;51.922;7.730;2023-03-20T03:05:36;31.57;;;21.73;;
47529;SDS011;33272;51.922;7.730;2023-03-20T03:08:08;29.83;;;21.13;;
47529;SDS011;33272;51.922;7.730;2023-03-20T03:10:40;27.87;;;20.00;;
47529;SDS011;33272;51.922;7.730;2023-03-20T03:13:14;30.20;;;21.50;;
47529;SDS011;33272;51.922;7.730;2023-03-20T03:15:46;31.00;;;20.73;;
47529;SDS011;33272;51.922;7.730;2023-03-20T03:18:18;29.63;;;20.77;;
47529;SDS011;33272;51.922;7.730;2023-03-20T03:20:50;29.20;;;20.40;;
47529;SDS011;33272;51.922;7.730;2023-03-20T03:23:25;28.70;;;20.43;;
47529;SDS011;33272;51.922;7.730;2023-03-20T03:25:54;28.77;;;19.07;;
47529;SDS011;33272;51.922;7.730;2023-03-20T03:28:27;25.57;;;19.30;;
47529;SDS011;33272;51.922;7.730;2023-03-20T03:31:01;27.93;;;19.53;;
47529;SDS011;33272;51.922;7.730;2023-03-20T03:33:32;24.30;;;18.07;;
47529;SDS011;33272;51.922;7.730;2023-03-20T03:36:06;26.57;;;19.10;;
47529;SDS011;33272;51.922;7.730;2023-03-20T03:38:43;26.60;;;18.37;;
47529;SDS011;33272;51.922;7.730;2023-03-20T03:41:18;26.43;;;18.47;;
47529;SDS011;33272;51.922;7.730;2023-03-20T03:43:55;26.47;;;19.33;;
47529;SDS011;33272;51.922;7.730;2023-03-20T03:46:32;26.87;;;18.90;;
47529;SDS011;33272;51.922;7.730;2023-03-20T03:49:07;28.10;;;20.87;;
47529;SDS011;33272;51.922;7.730;2023-03-20T03:51:40;30.07;;;20.07;;
47529;SDS011;33272;51.922;7.730;2023-03-20T03:54:11;27.70;;;20.40;;
47529;SDS011;33272;51.922;7.730;2023-03-20T03:56:43;29.57;;;21.17;;
47529;SDS011;33272;51.922;7.730;2023-03-20T03:59:17;28.40;;;20.13;;
47529;SDS011;33272;51.922;7.730;2023-03-20T04:01:51;25.60;;;19.83;;
47529;SDS011;33272;51.922;7.730;2023-03-20T04:04:19;25.33;;;18.63;;
47529;SDS011;33272;51.922;7.730;2023-03-20T04:06:48;26.13;;;19.57;;
47529;SDS011;33272;51.922;7.730;2023-03-20T04:09:15;26.93;;;20.07;;
47529;SDS011;33272;51.922;7.730;2023-03-20T04:11:42;26.63;;;19.80;;
47529;SDS011;33272;51.922;7.730;2023-03-20T04:14:16;25.17;;;18.97;;
47529;SDS011;33272;51.922;7.730;2023-03-20T04:16:43;23.77;;;18.60;;
47529;SDS011;33272;51.922;7.730;2023-03-20T04:19:10;26.97;;;18.77;;
47529;SDS011;33272;51.922;7.730;2023-03-20T04:21:37;27.10;;;19.63;;
47529;SDS011;33272;51.922;7.730;2023-03-20T04:24:04;24.87;;;18.37;;
47529;SDS011;33272;51.922;7.730;2023-03-20T04:26:32;24.40;;;18.40;;
47529;SDS011;33272;51.922;7.730;2023-03-20T04:28:59;25.33;;;19.20;;
47529;SDS011;33272;51.922;7.730;2023-03-20T04:31:28;23.13;;;17.27;;
47529;SDS011;33272;51.922;7.730;2023-03-20T04:33:55;22.50;;;17.93;;
47529;SDS011;33272;51.922;7.730;2023-03-20T04:36:22;24.60;;;17.13;;
47529;SDS011;33272;51.922;7.730;2023-03-20T04:38:49;22.87;;;16.53;;
47529;SDS011;33272;51.922;7.730;2023-03-20T04:41:16;24.50;;;17.03;;
47529;SDS011;33272;51.922;7.730;2023-03-20T04:43:45;23.20;;;16.83;;
47529;SDS011;33272;51.922;7.730;2023-03-20T04:46:12;21.73;;;15.70;;
47529;SDS011;33272;51.922;7.730;2023-03-20T04:48:40;22.03;;;16.80;;
47529;SDS011;33272;51.922;7.730;2023-03-20T04:51:07;24.33;;;17.73;;
47529;SDS011;33272;51.922;7.730;2023-03-20T04:53:34;21.93;;;16.40;;
47529;SDS011;33272;51.922;7.730;2023-03-20T04:56:01;23.27;;;15.90;;
47529;SDS011;33272;51.922;7.730;2023-03-20T04:58:28;20.20;;;15.57;;
47529;SDS011;33272;51.922;7.730;2023-03-20T05:00:55;19.87;;;15.10;;
47529;SDS011;33272;51.922;7.730;2023-03-20T05:03:22;23.13;;;16.13;;
47529;SDS011;33272;51.922;7.730;2023-03-20T05:05:51;20.07;;;15.50;;
47529;SDS011;33272;51.922;7.730;2023-03-20T05:08:18;21.87;;;15.87;;
47529;SDS011;33272;51.922;7.730;2023-03-20T05:10:45;18.80;;;14.70;;
47529;SDS011;33272;51.922;7.730;2023-03-20T05:13:12;21.67;;;15.43;;
47529;SDS011;33272;51.922;7.730;2023-03-20T05:15:39;19.60;;;15.57;;
47529;SDS011;33272;51.922;7.730;2023-03-20T05:18:06;21.10;;;16.03;;
47529;SDS011;33272;51.922;7.730;2023-03-20T05:20:33;18.47;;;14.30;;
47529;SDS011;33272;51.922;7.730;2023-03-20T05:23:02;20.87;;;15.37;;
47529;SDS011;33272;51.922;7.730;2023-03-20T05:25:29;20.37;;;15.13;;
47529;SDS011;33272;51.922;7.730;2023-03-20T05:27:56;22.07;;;16.60;;
47529;SDS011;33272;51.922;7.730;2023-03-20T05:30:23;17.93;;;13.30;;
47529;SDS011;33272;51.922;7.730;2023-03-20T05:32:50;18.60;;;14.27;;
47529;SDS011;33272;51.922;7.730;2023-03-20T05:35:18;18.07;;;14.00;;
47529;SDS011;33272;51.922;7.730;2023-03-20T05:37:45;17.33;;;13.50;;
47529;SDS011;33272;51.922;7.730;2023-03-20T05:40:14;19.60;;;13.57;;
47529;SDS011;33272;51.922;7.730;2023-03-20T05:42:43;16.87;;;13.17;;
47529;SDS011;33272;51.922;7.730;2023-03-20T05:45:10;16.57;;;13.03;;
47529;SDS011;33272;51.922;7.730;2023-03-20T05:47:39;16.20;;;13.00;;
47529;SDS011;33272;51.922;7.730;2023-03-20T05:50:07;18.13;;;14.53;;
47529;SDS011;33272;51.922;7.730;2023-03-20T05:52:36;16.10;;;12.73;;
47529;SDS011;33272;51.922;7.730;2023-03-20T05:55:03;19.20;;;13.30;;
47529;SDS011;33272;51.922;7.730;2023-03-20T05:57:32;17.10;;;12.67;;
47529;SDS011;33272;51.922;7.730;2023-03-20T05:59:59;14.80;;;11.97;;
47529;SDS011;33272;51.922;7.730;2023-03-20T06:02:26;17.37;;;12.97;;
47529;SDS011;33272;51.922;7.730;2023-03-20T06:04:53;17.67;;;12.50;;
47529;SDS011;33272;51.922;7.730;2023-03-20T06:07:20;15.67;;;11.43;;
47529;SDS011;33272;51.922;7.730;2023-03-20T06:09:47;16.53;;;11.67;;
47529;SDS011;33272;51.922;7.730;2023-03-20T06:12:14;13.83;;;10.57;;
47529;SDS011;33272;51.922;7.730;2023-03-20T06:14:43;14.40;;;10.73;;
47529;SDS011;33272;51.922;7.730;2023-03-20T06:17:10;14.63;;;11.07;;
47529;SDS011;33272;51.922;7.730;2023-03-20T06:19:37;14.63;;;10.73;;
47529;SDS011;33272;51.922;7.730;2023-03-20T06:22:04;15.57;;;10.67;;
47529;SDS011;33272;51.922;7.730;2023-03-20T06:24:31;14.40;;;10.00;;
47529;SDS011;33272;51.922;7.730;2023-03-20T06:26:59;12.97;;;9.90;;
47529;SDS011;33272;51.922;7.730;2023-03-20T06:29:26;15.57;;;10.63;;
47529;SDS011;33272;51.922;7.730;2023-03-20T06:31:55;11.07;;;9.00;;
47529;SDS011;33272;51.922;7.730;2023-03-20T06:34:22;12.43;;;9.83;;
47529;SDS011;33272;51.922;7.730;2023-03-20T06:36:50;14.83;;;10.23;;
47529;SDS011;33272;51.922;7.730;2023-03-20T06:39:17;11.30;;;9.17;;
47529;SDS011;33272;51.922;7.730;2023-03-20T06:41:43;13.30;;;9.83;;
47529;SDS011;33272;51.922;7.730;2023-03-20T06:44:10;10.10;;;8.40;;
47529;SDS011;33272;51.922;7.730;2023-03-20T06:46:37;13.80;;;9.37;;
47529;SDS011;33272;51.922;7.730;2023-03-20T06:49:06;11.33;;;8.53;;
47529;SDS011;33272;51.922;7.730;2023-03-20T06:51:33;10.87;;;8.77;;
47529;SDS011;33272;51.922;7.730;2023-03-20T06:54:00;12.90;;;8.23;;
47529;SDS011;33272;51.922;7.730;2023-03-20T06:56:27;10.23;;;8.40;;
47529;SDS011;33272;51.922;7.730;2023-03-20T06:58:55;11.73;;;9.10;;
47529;SDS011;33272;51.922;7.730;2023-03-20T07:01:22;11.67;;;8.47;;
47529;SDS011;33272;51.922;7.730;2023-03-20T07:03:50;11.57;;;8.30;;
47529;SDS011;33272;51.922;7.730;2023-03-20T07:06:18;9.60;;;8.00;;
47529;SDS011;33272;51.922;7.730;2023-03-20T07:08:45;9.67;;;7.43;;
47529;SDS011;33272;51.922;7.730;2023-03-20T07:11:12;11.13;;;8.30;;
47529;SDS011;33272;51.922;7.730;2023-03-20T07:13:39;10.47;;;7.50;;
47529;SDS011;33272;51.922;7.730;2023-03-20T07:16:07;10.53;;;7.60;;
47529;SDS011;33272;51.922;7.730;2023-03-20T07:18:35;9.43;;;6.97;;
47529;SDS011;33272;51.922;7.730;2023-03-20T07:21:03;10.47;;;7.80;;
47529;SDS011;33272;51.922;7.730;2023-03-20T07:23:33;10.17;;;7.23;;
47529;SDS011;33272;51.922;7.730;2023-03-20T07:26:00;10.07;;;7.40;;
47529;SDS011;33272;51.922;7.730;2023-03-20T07:28:29;11.20;;;7.20;;
47529;SDS011;33272;51.922;7.730;2023-03-20T07:30:56;13.30;;;8.50;;
47529;SDS011;33272;51.922;7.730;2023-03-20T07:33:23;11.33;;;8.13;;
47529;SDS011;33272;51.922;7.730;2023-03-20T07:35:51;11.03;;;7.77;;
47529;SDS011;33272;51.922;7.730;2023-03-20T07:38:18;10.93;;;8.10;;
47529;SDS011;33272;51.922;7.730;2023-03-20T07:40:47;8.87;;;7.77;;
47529;SDS011;33272;51.922;7.730;2023-03-20T07:43:14;10.50;;;8.10;;
47529;SDS011;33272;51.922;7.730;2023-03-20T07:45:42;9.87;;;7.90;;
47529;SDS011;33272;51.922;7.730;2023-03-20T07:48:08;10.80;;;7.70;;
47529;SDS011;33272;51.922;7.730;2023-03-20T07:50:36;10.07;;;7.77;;
47529;SDS011;33272;51.922;7.730;2023-03-20T07:53:02;11.30;;;7.83;;
47529;SDS011;33272;51.922;7.730;2023-03-20T07:55:29;11.90;;;8.03;;
47529;SDS011;33272;51.922;7.730;2023-03-20T07:57:58;11.30;;;7.53;;
47529;SDS011;33272;51.922;7.730;2023-03-20T08:00:25;10.63;;;8.47;;
47529;SDS011;33272;51.922;7.730;2023-03-20T08:02:52;10.77;;;7.20;;
47529;SDS011;33272;51.922;7.730;2023-03-20T08:05:21;10.10;;;7.60;;
47529;SDS011;33272;51.922;7.730;2023-03-20T08:07:48;10.67;;;8.10;;
47529;SDS011;33272;51.922;7.730;2023-03-20T08:10:15;11.00;;;8.00;;
47529;SDS011;33272;51.922;7.730;2023-03-20T08:12:42;14.60;;;8.73;;
47529;SDS011;33272;51.922;7.730;2023-03-20T08:15:11;14.40;;;8.60;;
47529;SDS011;33272;51.922;7.730;2023-03-20T08:17:40;12.97;;;7.97;;
47529;SDS011;33272;51.922;7.730;2023-03-20T08:20:09;11.20;;;7.90;;
47529;SDS011;33272;51.922;7.730;2023-03-20T08:22:37;11.07;;;7.97;;
47529;SDS011;33272;51.922;7.730;2023-03-20T08:25:04;13.53;;;8.80;;
47529;SDS011;33272;51.922;7.730;2023-03-20T08:27:33;13.63;;;8.10;;
47529;SDS011;33272;51.922;7.730;2023-03-20T08:30:00;13.57;;;8.07;;
47529;SDS011;33272;51.922;7.730;2023-03-20T08:32:29;11.00;;;8.53;;
47529;SDS011;33272;51.922;7.730;2023-03-20T08:34:56;13.03;;;8.60;;
47529;SDS011;33272;51.922;7.730;2023-03-20T08:37:23;12.17;;;7.90;;
47529;SDS011;33272;51.922;7.730;2023-03-20T08:39:50;13.30;;;8.93;;
47529;SDS011;33272;51.922;7.730;2023-03-20T08:42:17;11.80;;;8.30;;
47529;SDS011;33272;51.922;7.730;2023-03-20T08:44:44;12.50;;;8.23;;
47529;SDS011;33272;51.922;7.730;2023-03-20T08:47:12;10.97;;;7.77;;
47529;SDS011;33272;51.922;7.730;2023-03-20T08:49:41;14.43;;;8.17;;
47529;SDS011;33272;51.922;7.730;2023-03-20T08:52:08;9.67;;;7.23;;
47529;SDS011;33272;51.922;7.730;2023-03-20T08:54:36;10.40;;;8.17;;
47529;SDS011;33272;51.922;7.730;2023-03-20T08:57:03;11.27;;;7.77;;
47529;SDS011;33272;51.922;7.730;2023-03-20T08:59:30;11.07;;;7.40;;
47529;SDS011;33272;51.922;7.730;2023-03-20T09:01:56;10.83;;;7.10;;
47529;SDS011;33272;51.922;7.730;2023-03-20T09:04:23;12.13;;;6.87;;
47529;SDS011;33272;51.922;7.730;2023-03-20T09:06:53;10.47;;;6.73;;
47529;SDS011;33272;51.922;7.730;2023-03-20T09:09:20;8.33;;;6.47;;
47529;SDS011;33272;51.922;7.730;2023-03-20T09:11:53;11.93;;;6.33;;
47529;SDS011;33272;51.922;7.730;2023-03-20T09:14:20;10.10;;;5.53;;
47529;SDS011;33272;51.922;7.730;2023-03-20T09:16:47;11.40;;;6.20;;
47529;SDS011;33272;51.922;7.730;2023-03-20T09:19:15;7.57;;;4.83;;
47529;SDS011;33272;51.922;7.730;2023-03-20T09:21:43;7.73;;;4.60;;
47529;SDS011;33272;51.922;7.730;2023-03-20T09:24:11;6.07;;;4.13;;
47529;SDS011;33272;51.922;7.730;2023-03-20T09:26:38;7.00;;;3.93;;
47529;SDS011;33272;51.922;7.730;2023-03-20T09:29:05;5.60;;;4.30;;
47529;SDS011;33272;51.922;7.730;2023-03-20T09:31:32;5.43;;;3.87;;
47529;SDS011;33272;51.922;7.730;2023-03-20T09:33:59;6.23;;;3.43;;
47529;SDS011;33272;51.922;7.730;2023-03-20T09:36:26;7.43;;;3.60;;
47529;SDS011;33272;51.922;7.730;2023-03-20T09:38:53;5.53;;;3.30;;
47529;SDS011;33272;51.922;7.730;2023-03-20T09:41:22;9.17;;;3.33;;
47529;SDS011;33272;51.922;7.730;2023-03-20T09:44:05;6.23;;;3.77;;
47529;SDS011;33272;51.922;7.730;2023-03-20T09:46:49;4.30;;;3.10;;
47529;SDS011;33272;51.922;7.730;2023-03-20T09:49:35;5.83;;;3.23;;
47529;SDS011;33272;51.922;7.730;2023-03-20T09:52:17;4.83;;;3.47;;
47529;SDS011;33272;51.922;7.730;2023-03-20T09:54:49;6.87;;;3.30;;
47529;SDS011;33272;51.922;7.730;2023-03-20T09:57:22;6.00;;;2.83;;
47529;SDS011;33272;51.922;7.730;2023-03-20T09:59:52;4.60;;;2.80;;
47529;SDS011;33272;51.922;7.730;2023-03-20T10:02:24;5.50;;;3.20;;
47529;SDS011;33272;51.922;7.730;2023-03-20T10:05:05;5.37;;;3.20;;
47529;SDS011;33272;51.922;7.730;2023-03-20T10:07:46;4.77;;;2.70;;
47529;SDS011;33272;51.922;7.730;2023-03-20T10:10:13;5.23;;;2.90;;
47529;SDS011;33272;51.922;7.730;2023-03-20T10:12:55;6.67;;;3.53;;
47529;SDS011;33272;51.922;7.730;2023-03-20T10:15:39;5.03;;;2.63;;
47529;SDS011;33272;51.922;7.730;2023-03-20T10:18:16;5.70;;;3.17;;
47529;SDS011;33272;51.922;7.730;2023-03-20T10:20:51;5.00;;;2.90;;
47529;SDS011;33272;51.922;7.730;2023-03-20T10:23:26;2.77;;;2.37;;
47529;SDS011;33272;51.922;7.730;2023-03-20T10:26:02;4.80;;;2.50;;
47529;SDS011;33272;51.922;7.730;2023-03-20T10:28:38;4.40;;;2.43;;
47529;SDS011;33272;51.922;7.730;2023-03-20T10:31:17;3.90;;;2.40;;
47529;SDS011;33272;51.922;7.730;2023-03-20T10:34:02;3.83;;;2.50;;
47529;SDS011;33272;51.922;7.730;2023-03-20T10:36:49;5.40;;;2.60;;
47529;SDS011;33272;51.922;7.730;2023-03-20T10:39:35;7.20;;;2.97;;
47529;SDS011;33272;51.922;7.730;2023-03-20T10:42:15;4.00;;;2.70;;
47529;SDS011;33272;51.922;7.730;2023-03-20T10:44:50;4.60;;;2.50;;
47529;SDS011;33272;51.922;7.730;2023-03-20T10:47:24;3.70;;;2.47;;
47529;SDS011;33272;51.922;7.730;2023-03-20T10:49:59;5.33;;;2.40;;
47529;SDS011;33272;51.922;7.730;2023-03-20T10:52:32;5.07;;;2.40;;
47529;SDS011;33272;51.922;7.730;2023-03-20T10:55:03;4.20;;;2.07;;
47529;SDS011;33272;51.922;7.730;2023-03-20T10:57:36;3.70;;;2.10;;
47529;SDS011;33272;51.922;7.730;2023-03-20T11:00:13;4.87;;;2.20;;
47529;SDS011;33272;51.922;7.730;2023-03-20T11:02:46;3.97;;;2.20;;
47529;SDS011;33272;51.922;7.730;2023-03-20T11:05:19;4.20;;;2.10;;
47529;SDS011;33272;51.922;7.730;2023-03-20T11:07:58;4.70;;;2.43;;
47529;SDS011;33272;51.922;7.730;2023-03-20T11:10:28;4.50;;;2.40;;
47529;SDS011;33272;51.922;7.730;2023-03-20T11:12:58;3.90;;;2.07;;
47529;SDS011;33272;51.922;7.730;2023-03-20T11:15:42;3.17;;;1.60;;
47529;SDS011;33272;51.922;7.730;2023-03-20T11:18:09;4.00;;;2.03;;
47529;SDS011;33272;51.922;7.730;2023-03-20T11:20:42;3.73;;;2.13;;
47529;SDS011;33272;51.922;7.730;2023-03-20T11:23:15;4.53;;;1.90;;
47529;SDS011;33272;51.922;7.730;2023-03-20T11:25:47;4.30;;;2.03;;
47529;SDS011;33272;51.922;7.730;2023-03-20T11:28:18;3.03;;;1.80;;
47529;SDS011;33272;51.922;7.730;2023-03-20T11:31:01;4.37;;;2.13;;
47529;SDS011;33272;51.922;7.730;2023-03-20T11:33:33;3.33;;;2.10;;
47529;SDS011;33272;51.922;7.730;2023-03-20T11:36:09;4.40;;;2.00;;
47529;SDS011;33272;51.922;7.730;2023-03-20T11:38:42;5.10;;;2.03;;
47529;SDS011;33272;51.922;7.730;2023-03-20T11:41:15;4.47;;;2.00;;
47529;SDS011;33272;51.922;7.730;2023-03-20T11:43:44;3.23;;;2.20;;
47529;SDS011;33272;51.922;7.730;2023-03-20T11:46:13;4.30;;;2.47;;
47529;SDS011;33272;51.922;7.730;2023-03-20T11:48:40;3.13;;;2.00;;
47529;SDS011;33272;51.922;7.730;2023-03-20T11:51:10;5.00;;;2.00;;
47529;SDS011;33272;51.922;7.730;2023-03-20T11:53:52;3.63;;;2.27;;
47529;SDS011;33272;51.922;7.730;2023-03-20T11:56:27;4.03;;;2.23;;
47529;SDS011;33272;51.922;7.730;2023-03-20T11:58:57;5.83;;;2.23;;
47529;SDS011;33272;51.922;7.730;2023-03-20T12:01:37;6.60;;;2.80;;
47529;SDS011;33272;51.922;7.730;2023-03-20T12:04:12;3.20;;;2.17;;
47529;SDS011;33272;51.922;7.730;2023-03-20T12:06:43;4.80;;;2.37;;
47529;SDS011;33272;51.922;7.730;2023-03-20T12:09:22;3.77;;;2.30;;
47529;SDS011;33272;51.922;7.730;2023-03-20T12:11:59;4.80;;;2.70;;
47529;SDS011;33272;51.922;7.730;2023-03-20T12:14:33;6.07;;;2.13;;
47529;SDS011;33272;51.922;7.730;2023-03-20T12:17:24;4.83;;;2.60;;
47529;SDS011;33272;51.922;7.730;2023-03-20T12:20:10;4.37;;;2.17;;
47529;SDS011;33272;51.922;7.730;2023-03-20T12:22:51;3.77;;;1.90;;
47529;SDS011;33272;51.922;7.730;2023-03-20T12:25:25;5.10;;;2.57;;
47529;SDS011;33272;51.922;7.730;2023-03-20T12:27:56;4.47;;;2.67;;
47529;SDS011;33272;51.922;7.730;2023-03-20T12:30:31;4.57;;;2.33;;
47529;SDS011;33272;51.922;7.730;2023-03-20T12:33:17;5.10;;;2.30;;
47529;SDS011;33272;51.922;7.730;2023-03-20T12:35:57;5.50;;;2.70;;
47529;SDS011;33272;51.922;7.730;2023-03-20T12:38:27;5.67;;;2.97;;
47529;SDS011;33272;51.922;7.730;2023-03-20T12:40:58;3.50;;;2.50;;
47529;SDS011;33272;51.922;7.730;2023-03-20T12:43:39;5.00;;;2.70;;
47529;SDS011;33272;51.922;7.730;2023-03-20T12:46:35;6.13;;;2.90;;
47529;SDS011;33272;51.922;7.730;2023-03-20T12:49:15;5.23;;;3.63;;
47529;SDS011;33272;51.922;7.730;2023-03-20T12:51:57;4.77;;;3.40;;
47529;SDS011;33272;51.922;7.730;2023-03-20T12:54:41;6.50;;;3.70;;
47529;SDS011;33272;51.922;7.730;2023-03-20T12:57:27;6.90;;;4.40;;
47529;SDS011;33272;51.922;7.730;2023-03-20T13:00:04;5.00;;;3.93;;
47529;SDS011;33272;51.922;7.730;2023-03-20T13:02:48;5.30;;;3.77;;
47529;SDS011;33272;51.922;7.730;2023-03-20T13:05:30;6.00;;;3.73;;
47529;SDS011;33272;51.922;7.730;2023-03-20T13:11:24;8.93;;;3.67;;
47529;SDS011;33272;51.922;7.730;2023-03-20T13:14:01;6.07;;;4.00;;
47529;SDS011;33272;51.922;7.730;2023-03-20T13:16:37;6.17;;;3.73;;
47529;SDS011;33272;51.922;7.730;2023-03-20T13:19:15;7.00;;;3.53;;
47529;SDS011;33272;51.922;7.730;2023-03-20T13:21:56;5.13;;;2.93;;
47529;SDS011;33272;51.922;7.730;2023-03-20T13:24:32;7.20;;;2.93;;
47529;SDS011;33272;51.922;7.730;2023-03-20T13:27:18;4.37;;;2.60;;
47529;SDS011;33272;51.922;7.730;2023-03-20T13:29:58;8.10;;;3.77;;
47529;SDS011;33272;51.922;7.730;2023-03-20T13:32:33;7.03;;;3.87;;
47529;SDS011;33272;51.922;7.730;2023-03-20T13:35:19;4.03;;;2.53;;
47529;SDS011;33272;51.922;7.730;2023-03-20T13:37:59;5.60;;;3.67;;
47529;SDS011;33272;51.922;7.730;2023-03-20T13:40:33;4.10;;;2.70;;
47529;SDS011;33272;51.922;7.730;2023-03-20T13:43:09;3.97;;;2.73;;
47529;SDS011;33272;51.922;7.730;2023-03-20T13:45:48;4.00;;;2.80;;
47529;SDS011;33272;51.922;7.730;2023-03-20T13:48:23;4.63;;;2.97;;
47529;SDS011;33272;51.922;7.730;2023-03-20T13:50:59;6.13;;;4.40;;
47529;SDS011;33272;51.922;7.730;2023-03-20T13:53:54;6.33;;;3.90;;
47529;SDS011;33272;51.922;7.730;2023-03-20T13:56:35;7.10;;;3.53;;
47529;SDS011;33272;51.922;7.730;2023-03-20T13:59:22;5.33;;;4.43;;
47529;SDS011;33272;51.922;7.730;2023-03-20T14:02:11;5.90;;;4.17;;
47529;SDS011;33272;51.922;7.730;2023-03-20T14:04:51;5.50;;;4.30;;
47529;SDS011;33272;51.922;7.730;2023-03-20T14:07:30;8.40;;;4.47;;
47529;SDS011;33272;51.922;7.730;2023-03-20T14:13:12;6.10;;;4.50;;
47529;SDS011;33272;51.922;7.730;2023-03-20T14:15:48;5.07;;;3.80;;
47529;SDS011;33272;51.922;7.730;2023-03-20T14:18:20;7.33;;;3.97;;
47529;SDS011;33272;51.922;7.730;2023-03-20T14:20:52;5.87;;;3.47;;
47529;SDS011;33272;51.922;7.730;2023-03-20T14:23:28;5.30;;;4.13;;
47529;SDS011;33272;51.922;7.730;2023-03-20T14:26:05;5.83;;;4.10;;
47529;SDS011;33272;51.922;7.730;2023-03-20T14:31:28;6.33;;;4.50;;
47529;SDS011;33272;51.922;7.730;2023-03-20T14:36:50;5.53;;;3.80;;
47529;SDS011;33272;51.922;7.730;2023-03-20T14:42:18;5.33;;;4.17;;
47529;SDS011;33272;51.922;7.730;2023-03-20T14:48:03;5.40;;;3.97;;
47529;SDS011;33272;51.922;7.730;2023-03-20T14:50:40;8.00;;;4.10;;
47529;SDS011;33272;51.922;7.730;2023-03-20T14:53:20;7.23;;;5.37;;
47529;SDS011;33272;51.922;7.730;2023-03-20T15:01:33;6.57;;;4.80;;
47529;SDS011;33272;51.922;7.730;2023-03-20T15:04:23;6.43;;;4.50;;
47529;SDS011;33272;51.922;7.730;2023-03-20T15:06:58;7.37;;;5.30;;
47529;SDS011;33272;51.922;7.730;2023-03-20T15:09:29;6.67;;;5.03;;
47529;SDS011;33272;51.922;7.730;2023-03-20T15:12:03;7.97;;;5.33;;
47529;SDS011;33272;51.922;7.730;2023-03-20T15:14:33;6.67;;;4.90;;
47529;SDS011;33272;51.922;7.730;2023-03-20T15:17:14;5.97;;;4.73;;
47529;SDS011;33272;51.922;7.730;2023-03-20T15:19:44;6.33;;;4.17;;
47529;SDS011;33272;51.922;7.730;2023-03-20T15:22:15;6.70;;;4.60;;
47529;SDS011;33272;51.922;7.730;2023-03-20T15:24:51;6.07;;;4.10;;
47529;SDS011;33272;51.922;7.730;2023-03-20T15:27:20;5.53;;;4.40;;
47529;SDS011;33272;51.922;7.730;2023-03-20T15:29:54;6.67;;;4.20;;
47529;SDS011;33272;51.922;7.730;2023-03-20T15:32:22;6.10;;;3.83;;